Time;durP1;ratioP1;P1;durP2;ratioP2;P2;SDS_P1;SDS_P2;PMS_P1;PMS_P2;Temp;Humidity;BMP_temperature;BMP_pressure;BME280_temperature;BME280_humidity;BME280_pressure;Samples;Min_cycle;Max_cycle;Signal;HPM_P1;HPM_P2
2023/10/05 00:01:46;;;;;;;;;;;;;;;;;;5050185;28;19986;-70
2023/10/05 00:04:15;;;;;;;;;;;;;;;;;;5051927;28;20008;-70
2023/10/05 00:06:45;;;;;;;;;;;;;;;;;;5051430;28;20536;-71
2023/10/05 00:09:16;;;;;;;;;;;;;;;;;;5050836;28;20645;-70
2023/10/05 00:11:43;;;;;;;;;;;;;;;;;;5051722;28;20040;-72
2023/10/05 00:14:10;;;;;;;;;;;;;;;;;;5051505;28;19981;-70
2023/10/05 00:16:36;;;;;;;;;;;;;;;;;;5051583;28;20012;-70
2023/10/05 00:19:03;;;;;;;;;;;;;;;;;;5051729;28;19986;-71
2023/10/05 00:21:35;;;;;;;;;;;;;;;;;;5049931;28;19986;-71
2023/10/05 00:24:02;;;;;;;;;;;;;;;;;;5050156;28;20029;-70
2023/10/05 00:26:29;;;;;;;;;;;;;;;;;;5051581;28;19992;-70
2023/10/05 00:29:08;;;;;;;;;;;;;;;;;;5051376;28;20041;-70
2023/10/05 00:31:38;;;;;;;;;;;;;;;;;;5049947;28;20571;-71
2023/10/05 00:34:08;;;;;;;;;;;;;;;;;;5050016;28;19986;-70
2023/10/05 00:36:35;;;;;;;;;;;;;;;;;;5051292;28;20508;-71
2023/10/05 00:39:02;;;;;;;;;;;;;;;;;;5051358;28;19986;-70
2023/10/05 00:41:28;;;;;;;;;;;;;;;;;;5051335;28;19993;-71
2023/10/05 00:43:54;;;;;;;;;;;;;;;;;;5051182;28;20080;-69
2023/10/05 00:46:21;;;;;;;;;;;;;;;;;;5051237;28;20021;-71
2023/10/05 00:49:51;;;;;;;;;;;;;;;;;;5051089;28;20390;-71
2023/10/05 00:51:44;;;;;;;;;;;;;;;;;;5050210;28;20039;-70
2023/10/05 00:54:18;;;;;;;;;;;;;;;;;;5051133;28;20474;-70
2023/10/05 00:56:46;;;;;;;;;;;;;;;;;;5051191;28;19981;-71
2023/10/05 00:59:12;;;;;;;;;;;;;;;;;;5049982;28;19993;-70
2023/10/05 01:04:34;;;;;;;;;;;;;;;;;;5051317;28;20127;-72
2023/10/05 01:07:17;;;;;;;;;;;;;;;;;;5049717;28;19994;-71
2023/10/05 01:14:53;;;;;;;;;;;;;;;;;;5051066;28;20024;-71
2023/10/05 01:17:20;;;;;;;;;;;;;;;;;;5051072;28;20024;-71
2023/10/05 01:19:46;;;;;;;;;;;;;;;;;;5051784;28;19986;-71
2023/10/05 01:22:16;;;;;;;;;;;;;;;;;;5054694;28;19982;-70
2023/10/05 01:24:45;;;;;;;;;;;;;;;;;;5053015;28;20469;-71
2023/10/05 01:27:11;;;;;;;;;;;;;;;;;;5054575;28;20068;-72
2023/10/05 01:29:37;;;;;;;;;;;;;;;;;;5054799;28;20442;-72
2023/10/05 01:32:03;;;;;;;;;;;;;;;;;;5054487;28;19988;-70
2023/10/05 01:34:29;;;;;;;;;;;;;;;;;;5054451;28;19982;-70
2023/10/05 01:36:55;;;;;;;;;;;;;;;;;;5054185;28;19986;-70
2023/10/05 01:39:22;;;;;;;;;;;;;;;;;;5054276;28;19988;-70
2023/10/05 01:41:48;;;;;;;;;;;;;;;;;;5054104;28;20081;-69
2023/10/05 01:44:14;;;;;;;;;;;;;;;;;;5053856;28;20543;-69
2023/10/05 01:46:41;;;;;;;;;;;;;;;;;;5054065;28;19994;-71
2023/10/05 01:49:07;;;;;;;;;;;;;;;;;;5054037;28;20009;-70
2023/10/05 01:51:33;;;;;;;;;;;;;;;;;;5054016;28;19993;-69
2023/10/05 01:54:04;;;;;;;;;;;;;;;;;;5054058;28;19982;-71
2023/10/05 01:56:31;;;;;;;;;;;;;;;;;;5052337;28;19986;-70
2023/10/05 01:59:00;;;;;;;;;;;;;;;;;;5053826;28;19994;-69
2023/10/05 02:01:28;;;;;;;;;;;;;;;;;;5053598;28;19986;-68
2023/10/05 02:03:57;;;;;;;;;;;;;;;;;;5053877;28;19997;-68
2023/10/05 02:06:23;;;;;;;;;;;;;;;;;;5053592;28;20002;-69
2023/10/05 02:08:49;;;;;;;;;;;;;;;;;;5053475;28;20151;-69
2023/10/05 02:11:15;;;;;;;;;;;;;;;;;;5052216;28;20010;-68
2023/10/05 02:13:42;;;;;;;;;;;;;;;;;;5053526;28;19986;-69
2023/10/05 02:16:08;;;;;;;;;;;;;;;;;;5053584;28;19989;-68
2023/10/05 02:18:38;;;;;;;;;;;;;;;;;;5053319;28;20354;-69
2023/10/05 02:21:08;;;;;;;;;;;;;;;;;;5053310;28;19982;-71
2023/10/05 02:23:41;;;;;;;;;;;;;;;;;;5053286;28;19985;-71
2023/10/05 02:26:33;;;;;;;;;;;;;;;;;;5053403;28;20089;-69
2023/10/05 02:28:56;;;;;;;;;;;;;;;;;;5053060;28;20013;-70
2023/10/05 02:31:22;;;;;;;;;;;;;;;;;;5052654;28;19993;-69
2023/10/05 02:33:51;;;;;;;;;;;;;;;;;;5053095;28;20012;-70
2023/10/05 02:36:21;;;;;;;;;;;;;;;;;;5053140;28;20471;-70
2023/10/05 02:38:53;;;;;;;;;;;;;;;;;;5053152;28;20028;-69
2023/10/05 02:41:24;;;;;;;;;;;;;;;;;;5052180;28;20016;-71
2023/10/05 02:43:53;;;;;;;;;;;;;;;;;;5051692;28;20043;-70
2023/10/05 02:46:20;;;;;;;;;;;;;;;;;;5052808;28;20505;-70
2023/10/05 02:48:46;;;;;;;;;;;;;;;;;;5051500;28;20013;-70
2023/10/05 02:51:16;;;;;;;;;;;;;;;;;;5052812;28;19988;-70
2023/10/05 02:53:41;;;;;;;;;;;;;;;;;;5051569;28;20043;-70
2023/10/05 02:56:07;;;;;;;;;;;;;;;;;;5052888;28;19982;-70
2023/10/05 02:58:34;;;;;;;;;;;;;;;;;;5052522;28;19986;-70
2023/10/05 03:01:00;;;;;;;;;;;;;;;;;;5052578;28;20083;-70
2023/10/05 03:03:26;;;;;;;;;;;;;;;;;;5052872;28;19990;-70
2023/10/05 03:05:52;;;;;;;;;;;;;;;;;;5052601;28;20136;-69
2023/10/05 03:08:19;;;;;;;;;;;;;;;;;;5052550;28;20013;-69
2023/10/05 03:10:47;;;;;;;;;;;;;;;;;;5052448;28;19982;-69
2023/10/05 03:13:14;;;;;;;;;;;;;;;;;;5052362;28;19986;-69
2023/10/05 03:15:41;;;;;;;;;;;;;;;;;;5052347;28;19986;-70
2023/10/05 03:18:07;;;;;;;;;;;;;;;;;;5052393;28;19986;-69
2023/10/05 03:20:33;;;;;;;;;;;;;;;;;;5052307;28;19986;-69
2023/10/05 03:22:59;;;;;;;;;;;;;;;;;;5052485;28;19986;-69
2023/10/05 03:25:26;;;;;;;;;;;;;;;;;;5052178;28;20497;-70
2023/10/05 03:27:52;;;;;;;;;;;;;;;;;;5052149;28;20001;-70
2023/10/05 03:30:18;;;;;;;;;;;;;;;;;;5052044;28;19985;-70
2023/10/05 03:32:48;;;;;;;;;;;;;;;;;;5052370;28;19990;-70
2023/10/05 03:35:14;;;;;;;;;;;;;;;;;;5052041;28;19982;-70
2023/10/05 03:37:41;;;;;;;;;;;;;;;;;;5052003;28;19989;-70
2023/10/05 03:40:19;;;;;;;;;;;;;;;;;;5052064;28;19989;-70
2023/10/05 03:42:46;;;;;;;;;;;;;;;;;;5051631;28;19985;-70
2023/10/05 03:45:16;;;;;;;;;;;;;;;;;;5051139;28;20013;-69
2023/10/05 03:47:42;;;;;;;;;;;;;;;;;;5051833;28;20016;-69
2023/10/05 03:50:08;;;;;;;;;;;;;;;;;;5051852;28;19986;-70
2023/10/05 03:52:34;;;;;;;;;;;;;;;;;;5051713;28;19988;-70
2023/10/05 03:55:04;;;;;;;;;;;;;;;;;;5051761;28;19986;-70
2023/10/05 03:57:31;;;;;;;;;;;;;;;;;;5051634;28;20415;-70
2023/10/05 03:59:57;;;;;;;;;;;;;;;;;;5051655;28;19985;-70
2023/10/05 04:02:25;;;;;;;;;;;;;;;;;;5051609;28;19982;-69
2023/10/05 04:04:52;;;;;;;;;;;;;;;;;;5051671;28;20001;-69
2023/10/05 04:07:20;;;;;;;;;;;;;;;;;;5051420;28;20049;-70
2023/10/05 04:09:46;;;;;;;;;;;;;;;;;;5051618;28;20080;-69
2023/10/05 04:12:12;;;;;;;;;;;;;;;;;;5051536;28;20080;-69
2023/10/05 04:14:39;;;;;;;;;;;;;;;;;;5051604;28;19989;-70
2023/10/05 04:17:08;;;;;;;;;;;;;;;;;;5051403;28;20073;-69
2023/10/05 04:19:34;;;;;;;;;;;;;;;;;;5051321;28;19988;-69
2023/10/05 04:21:59;;;;;;;;;;;;;;;;;;5051519;28;19981;-69
2023/10/05 04:24:27;;;;;;;;;;;;;;;;;;5049989;28;20017;-69
2023/10/05 04:26:53;;;;;;;;;;;;;;;;;;5051398;28;20497;-69
2023/10/05 04:29:23;;;;;;;;;;;;;;;;;;5051333;28;20101;-69
2023/10/05 04:31:49;;;;;;;;;;;;;;;;;;5051389;28;20100;-68
2023/10/05 04:34:18;;;;;;;;;;;;;;;;;;5051413;28;19989;-69
2023/10/05 04:36:44;;;;;;;;;;;;;;;;;;5051242;28;19982;-69
2023/10/05 04:39:12;;;;;;;;;;;;;;;;;;5051248;28;19996;-69
2023/10/05 04:41:49;;;;;;;;;;;;;;;;;;5051639;28;20064;-69
2023/10/05 04:44:15;;;;;;;;;;;;;;;;;;5051044;28;20039;-70
2023/10/05 04:46:48;;;;;;;;;;;;;;;;;;5051213;28;19994;-70
2023/10/05 04:49:14;;;;;;;;;;;;;;;;;;5051105;28;20037;-71
2023/10/05 04:51:41;;;;;;;;;;;;;;;;;;5051132;28;20480;-69
2023/10/05 04:54:10;;;;;;;;;;;;;;;;;;5051410;28;19993;-70
2023/10/05 05:02:12;;;;;;;;;;;;;;;;;;5055143;28;19989;-71
2023/10/05 05:07:01;;;;;;;;;;;;;;;;;;5054971;28;19986;-70
2023/10/05 05:09:29;;;;;;;;;;;;;;;;;;5054592;28;20004;-68
2023/10/05 05:11:56;;;;;;;;;;;;;;;;;;5057258;28;19986;-70
2023/10/05 05:14:23;;;;;;;;;;;;;;;;;;5053186;28;19985;-69
2023/10/05 05:16:52;;;;;;;;;;;;;;;;;;5054927;28;20028;-69
2023/10/05 05:19:18;;;;;;;;;;;;;;;;;;5054645;28;20455;-69
2023/10/05 05:21:45;;;;;;;;;;;;;;;;;;5054356;28;20500;-68
2023/10/05 05:24:13;;;;;;;;;;;;;;;;;;5054501;28;20043;-69
2023/10/05 05:26:39;;;;;;;;;;;;;;;;;;5053886;28;20420;-68
2023/10/05 05:29:05;;;;;;;;;;;;;;;;;;5054323;28;20020;-70
2023/10/05 05:31:31;;;;;;;;;;;;;;;;;;5050538;28;20485;-70
2023/10/05 05:33:59;;;;;;;;;;;;;;;;;;5043822;28;20453;-69
2023/10/05 05:36:25;;;;;;;;;;;;;;;;;;5042917;28;20011;-69
2023/10/05 05:38:51;;;;;;;;;;;;;;;;;;5039798;28;19996;-69
2023/10/05 05:41:20;;;;;;;;;;;;;;;;;;5034206;28;19982;-70
2023/10/05 05:43:46;;;;;;;;;;;;;;;;;;5034466;28;19990;-68
2023/10/05 05:46:13;;;;;;;;;;;;;;;;;;5034103;28;20371;-69
2023/10/05 05:48:39;;;;;;;;;;;;;;;;;;5034029;28;20009;-70
2023/10/05 05:51:10;;;;;;;;;;;;;;;;;;5033901;28;19986;-70
2023/10/05 05:53:36;;;;;;;;;;;;;;;;;;5034210;28;19982;-69
2023/10/05 05:56:03;;;;;;;;;;;;;;;;;;5032677;28;19986;-70
2023/10/05 05:58:29;;;;;;;;;;;;;;;;;;5035450;28;19986;-69
2023/10/05 06:00:55;;;;;;;;;;;;;;;;;;5044279;28;20452;-69
2023/10/05 06:03:21;;;;;;;;;;;;;;;;;;5052010;28;19998;-69
2023/10/05 06:05:50;;;;;;;;;;;;;;;;;;5053265;28;20084;-69
2023/10/05 06:08:16;;;;;;;;;;;;;;;;;;5053051;28;20359;-69
2023/10/05 06:10:43;;;;;;;;;;;;;;;;;;5053361;28;20160;-69
2023/10/05 06:13:12;;;;;;;;;;;;;;;;;;5050907;28;19986;-70
2023/10/05 06:15:38;;;;;;;;;;;;;;;;;;5033521;28;20025;-69
2023/10/05 06:18:04;;;;;;;;;;;;;;;;;;5032078;28;20015;-69
2023/10/05 06:20:29;;;;;;;;;;;;;;;;;;5033375;28;19982;-69
2023/10/05 06:22:55;;;;;;;;;;;;;;;;;;5045738;28;20028;-69
2023/10/05 06:25:21;;;;;;;;;;;;;;;;;;5035017;28;20001;-68
2023/10/05 06:27:47;;;;;;;;;;;;;;;;;;5033339;28;20010;-68
2023/10/05 06:30:13;;;;;;;;;;;;;;;;;;5049751;28;20012;-68
2023/10/05 06:32:39;;;;;;;;;;;;;;;;;;5053201;28;19986;-68
2023/10/05 06:35:08;;;;;;;;;;;;;;;;;;5053215;28;20457;-69
2023/10/05 06:37:34;;;;;;;;;;;;;;;;;;5053070;28;20358;-69
2023/10/05 06:39:59;;;;;;;;;;;;;;;;;;5053226;28;20438;-68
2023/10/05 06:42:26;;;;;;;;;;;;;;;;;;5053298;28;20028;-68
2023/10/05 06:44:51;;;;;;;;;;;;;;;;;;5036932;28;20024;-69
2023/10/05 06:47:36;;;;;;;;;;;;;;;;;;5041581;28;19994;-68
2023/10/05 06:50:03;;;;;;;;;;;;;;;;;;5052781;28;20012;-69
2023/10/05 06:52:29;;;;;;;;;;;;;;;;;;5049642;28;19986;-68
2023/10/05 06:54:55;;;;;;;;;;;;;;;;;;5032595;28;20443;-68
2023/10/05 06:57:21;;;;;;;;;;;;;;;;;;5041568;28;20058;-69
2023/10/05 06:59:47;;;;;;;;;;;;;;;;;;5033855;28;19990;-67
2023/10/05 07:02:13;;;;;;;;;;;;;;;;;;5033089;28;20048;-70
2023/10/05 07:04:39;;;;;;;;;;;;;;;;;;5033573;28;19992;-69
2023/10/05 07:07:05;;;;;;;;;;;;;;;;;;5032294;28;20060;-69
2023/10/05 07:09:31;;;;;;;;;;;;;;;;;;5032553;28;20466;-69
2023/10/05 07:11:58;;;;;;;;;;;;;;;;;;5036889;28;19990;-70
2023/10/05 07:14:24;;;;;;;;;;;;;;;;;;5034470;28;20328;-69
2023/10/05 07:16:50;;;;;;;;;;;;;;;;;;5044605;28;20088;-68
2023/10/05 07:19:17;;;;;;;;;;;;;;;;;;5032094;28;20371;-68
2023/10/05 07:21:44;;;;;;;;;;;;;;;;;;5032545;28;19990;-68
2023/10/05 07:24:10;;;;;;;;;;;;;;;;;;5032403;28;20021;-68
2023/10/05 07:26:37;;;;;;;;;;;;;;;;;;5032144;28;20044;-69
2023/10/05 07:29:04;;;;;;;;;;;;;;;;;;5032121;28;20060;-68
2023/10/05 07:31:29;;;;;;;;;;;;;;;;;;5032084;28;19982;-68
2023/10/05 07:33:57;;;;;;;;;;;;;;;;;;5031980;28;20027;-68
2023/10/05 07:36:23;;;;;;;;;;;;;;;;;;5032291;28;19990;-68
2023/10/05 07:38:49;;;;;;;;;;;;;;;;;;5032133;28;19983;-68
2023/10/05 07:41:15;;;;;;;;;;;;;;;;;;5032085;28;19982;-68
2023/10/05 07:43:40;;;;;;;;;;;;;;;;;;5031973;28;19993;-68
2023/10/05 07:46:06;;;;;;;;;;;;;;;;;;5031794;28;20057;-68
2023/10/05 07:48:32;;;;;;;;;;;;;;;;;;5031763;28;20504;-68
2023/10/05 07:50:59;;;;;;;;;;;;;;;;;;5031758;28;19982;-68
2023/10/05 07:53:25;;;;;;;;;;;;;;;;;;5031950;28;19983;-68
2023/10/05 07:55:51;;;;;;;;;;;;;;;;;;5032005;28;19990;-67
2023/10/05 07:58:19;;;;;;;;;;;;;;;;;;5031823;28;20050;-69
2023/10/05 08:00:45;;;;;;;;;;;;;;;;;;5031757;28;20029;-68
2023/10/05 08:03:11;;;;;;;;;;;;;;;;;;5032188;28;20009;-67
2023/10/05 08:05:37;;;;;;;;;;;;;;;;;;5031868;28;20006;-67
2023/10/05 08:08:04;;;;;;;;;;;;;;;;;;5031961;28;20358;-68
2023/10/05 08:10:31;;;;;;;;;;;;;;;;;;5031868;28;20212;-68
2023/10/05 08:12:58;;;;;;;;;;;;;;;;;;5031871;28;19986;-69
2023/10/05 08:15:24;;;;;;;;;;;;;;;;;;5032128;28;19982;-69
2023/10/05 08:17:50;;;;;;;;;;;;;;;;;;5032060;28;19993;-69
2023/10/05 08:20:17;;;;;;;;;;;;;;;;;;5031842;28;19997;-68
2023/10/05 08:22:44;;;;;;;;;;;;;;;;;;5031562;28;19989;-68
2023/10/05 08:25:11;;;;;;;;;;;;;;;;;;5031766;28;20033;-69
2023/10/05 08:27:38;;;;;;;;;;;;;;;;;;5031277;28;20014;-69
2023/10/05 08:30:04;;;;;;;;;;;;;;;;;;5032747;28;19990;-69
2023/10/05 08:32:32;;;;;;;;;;;;;;;;;;5035920;28;20363;-69
2023/10/05 08:34:59;;;;;;;;;;;;;;;;;;5035739;28;19994;-68
2023/10/05 08:37:27;;;;;;;;;;;;;;;;;;5035620;28;19986;-68
2023/10/05 08:39:53;;;;;;;;;;;;;;;;;;5035485;28;19988;-69
2023/10/05 08:42:20;;;;;;;;;;;;;;;;;;5035286;28;20084;-69
2023/10/05 08:44:45;;;;;;;;;;;;;;;;;;5035267;28;20014;-69
2023/10/05 08:47:12;;;;;;;;;;;;;;;;;;5035174;28;19995;-69
2023/10/05 08:49:38;;;;;;;;;;;;;;;;;;5035181;28;20053;-69
2023/10/05 08:52:13;;;;;;;;;;;;;;;;;;5035023;28;20010;-68
2023/10/05 08:54:39;;;;;;;;;;;;;;;;;;5035316;28;19992;-69
2023/10/05 08:57:11;;;;;;;;;;;;;;;;;;5035082;28;19986;-68
2023/10/05 08:59:37;;;;;;;;;;;;;;;;;;5035453;28;20063;-68
2023/10/05 09:02:04;;;;;;;;;;;;;;;;;;5034861;28;20427;-69
2023/10/05 09:04:43;;;;;;;;;;;;;;;;;;5034886;28;19989;-69
2023/10/05 09:07:08;;;;;;;;;;;;;;;;;;5034031;28;20462;-69
2023/10/05 09:09:38;;;;;;;;;;;;;;;;;;5035095;28;19994;-69
2023/10/05 09:12:04;;;;;;;;;;;;;;;;;;5035120;28;20149;-67
2023/10/05 09:14:38;;;;;;;;;;;;;;;;;;5034925;28;20025;-68
2023/10/05 09:17:04;;;;;;;;;;;;;;;;;;5034891;28;20356;-69
2023/10/05 09:19:31;;;;;;;;;;;;;;;;;;5034813;28;20424;-69
2023/10/05 09:24:25;;;;;;;;;;;;;;;;;;5034565;28;19989;-68
2023/10/05 09:26:51;;;;;;;;;;;;;;;;;;5034599;28;19994;-68
2023/10/05 09:29:17;;;;;;;;;;;;;;;;;;5034469;28;20014;-68
2023/10/05 09:31:46;;;;;;;;;;;;;;;;;;5033545;28;20354;-67
2023/10/05 09:34:14;;;;;;;;;;;;;;;;;;5034387;28;19993;-67
2023/10/05 09:36:40;;;;;;;;;;;;;;;;;;5034432;28;20008;-69
2023/10/05 09:39:07;;;;;;;;;;;;;;;;;;5034617;28;20474;-68
2023/10/05 09:41:35;;;;;;;;;;;;;;;;;;5034414;28;19987;-69
2023/10/05 09:44:01;;;;;;;;;;;;;;;;;;5034065;28;20426;-69
2023/10/05 09:46:27;;;;;;;;;;;;;;;;;;5034562;28;19994;-69
2023/10/05 09:48:53;;;;;;;;;;;;;;;;;;5034152;28;20417;-69
2023/10/05 09:51:21;;;;;;;;;;;;;;;;;;5033330;28;20329;-69
2023/10/05 09:53:47;;;;;;;;;;;;;;;;;;5034196;28;19989;-68
2023/10/05 09:56:14;;;;;;;;;;;;;;;;;;5034193;28;19982;-68
2023/10/05 09:58:40;;;;;;;;;;;;;;;;;;5033888;28;19982;-69
2023/10/05 10:01:20;;;;;;;;;;;;;;;;;;5034070;28;20094;-69
2023/10/05 10:03:46;;;;;;;;;;;;;;;;;;5033191;28;19990;-69
2023/10/05 10:06:12;;;;;;;;;;;;;;;;;;5033928;28;20098;-69
2023/10/05 10:08:51;;;;;;;;;;;;;;;;;;5033782;28;20514;-69
2023/10/05 10:11:20;;;;;;;;;;;;;;;;;;5033651;28;20016;-68
2023/10/05 10:13:46;;;;;;;;;;;;;;;;;;5033393;28;19990;-67
2023/10/05 10:16:15;;;;;;;;;;;;;;;;;;5033525;28;20000;-69
2023/10/05 10:18:43;;;;;;;;;;;;;;;;;;5033395;28;20009;-68
2023/10/05 10:21:09;;;;;;;;;;;;;;;;;;5033536;28;19989;-68
2023/10/05 10:23:38;;;;;;;;;;;;;;;;;;5033792;28;20032;-69
2023/10/05 10:26:05;;;;;;;;;;;;;;;;;;5033566;28;19982;-68
2023/10/05 10:28:43;;;;;;;;;;;;;;;;;;5033288;28;20078;-69
2023/10/05 10:31:11;;;;;;;;;;;;;;;;;;5033224;28;20461;-68
2023/10/05 10:33:37;;;;;;;;;;;;;;;;;;5033590;28;19990;-69
2023/10/05 10:36:06;;;;;;;;;;;;;;;;;;5033350;28;20084;-70
2023/10/05 10:38:32;;;;;;;;;;;;;;;;;;5033036;28;19996;-70
2023/10/05 10:41:06;;;;;;;;;;;;;;;;;;5033260;28;19983;-69
2023/10/05 10:43:32;;;;;;;;;;;;;;;;;;5033191;28;19993;-69
2023/10/05 10:46:00;;;;;;;;;;;;;;;;;;5032973;28;20022;-68
2023/10/05 10:48:29;;;;;;;;;;;;;;;;;;5032956;28;20014;-68
2023/10/05 10:50:59;;;;;;;;;;;;;;;;;;5032833;28;19986;-68
2023/10/05 10:53:25;;;;;;;;;;;;;;;;;;5031099;28;20040;-68
2023/10/05 10:55:51;;;;;;;;;;;;;;;;;;5032940;28;19982;-68
2023/10/05 10:58:23;;;;;;;;;;;;;;;;;;5033015;28;19990;-68
2023/10/05 11:01:13;;;;;;;;;;;;;;;;;;5032959;28;19988;-68
2023/10/05 11:03:40;;;;;;;;;;;;;;;;;;5032769;28;20458;-68
2023/10/05 11:06:09;;;;;;;;;;;;;;;;;;5032547;28;20002;-68
2023/10/05 11:08:40;;;;;;;;;;;;;;;;;;5032472;28;20012;-67
2023/10/05 11:11:15;;;;;;;;;;;;;;;;;;5032607;28;20419;-69
2023/10/05 11:13:43;;;;;;;;;;;;;;;;;;5032604;28;20236;-67
2023/10/05 11:16:09;;;;;;;;;;;;;;;;;;5032414;28;20069;-67
2023/10/05 11:18:38;;;;;;;;;;;;;;;;;;5032436;28;19993;-69
2023/10/05 11:21:05;;;;;;;;;;;;;;;;;;5031285;28;20438;-69
2023/10/05 11:23:31;;;;;;;;;;;;;;;;;;5032403;28;19993;-68
2023/10/05 11:26:17;;;;;;;;;;;;;;;;;;5032592;28;20354;-67
2023/10/05 11:28:43;;;;;;;;;;;;;;;;;;5031042;28;20539;-67
2023/10/05 11:31:11;;;;;;;;;;;;;;;;;;5032258;28;20025;-68
2023/10/05 11:33:37;;;;;;;;;;;;;;;;;;5032183;28;20510;-68
2023/10/05 11:36:17;;;;;;;;;;;;;;;;;;5032239;28;20124;-68
2023/10/05 11:38:43;;;;;;;;;;;;;;;;;;5032447;28;20088;-68
2023/10/05 11:41:09;;;;;;;;;;;;;;;;;;5031969;28;20076;-68
2023/10/05 11:43:35;;;;;;;;;;;;;;;;;;5032220;28;19986;-70
2023/10/05 11:46:12;;;;;;;;;;;;;;;;;;5032668;28;20025;-67
2023/10/05 11:48:42;;;;;;;;;;;;;;;;;;5032156;28;20029;-68
2023/10/05 11:51:10;;;;;;;;;;;;;;;;;;5031904;28;20005;-68
2023/10/05 11:53:36;;;;;;;;;;;;;;;;;;5032126;28;19997;-68
2023/10/05 11:56:04;;;;;;;;;;;;;;;;;;5032114;28;19990;-68
2023/10/05 11:58:33;;;;;;;;;;;;;;;;;;5032365;28;20048;-69
2023/10/05 12:01:03;;;;;;;;;;;;;;;;;;5032264;28;19994;-69
2023/10/05 12:03:29;;;;;;;;;;;;;;;;;;5032132;28;20028;-69
2023/10/05 12:06:00;;;;;;;;;;;;;;;;;;5030912;28;20081;-69
2023/10/05 12:08:28;;;;;;;;;;;;;;;;;;5031873;28;20006;-69
2023/10/05 12:10:58;;;;;;;;;;;;;;;;;;5031710;28;20028;-69
2023/10/05 12:13:24;;;;;;;;;;;;;;;;;;5030684;28;20087;-69
2023/10/05 12:15:51;;;;;;;;;;;;;;;;;;5031768;28;20496;-69
2023/10/05 12:18:17;;;;;;;;;;;;;;;;;;5031495;28;20017;-68
2023/10/05 12:20:43;;;;;;;;;;;;;;;;;;5031558;28;20045;-69
2023/10/05 12:23:12;;;;;;;;;;;;;;;;;;5031792;28;20068;-69
2023/10/05 12:25:38;;;;;;;;;;;;;;;;;;5030525;28;20040;-69
2023/10/05 12:28:04;;;;;;;;;;;;;;;;;;5031322;28;20061;-69
2023/10/05 12:30:31;;;;;;;;;;;;;;;;;;5031437;28;19982;-69
2023/10/05 12:32:57;;;;;;;;;;;;;;;;;;5031625;28;19986;-68
2023/10/05 12:35:23;;;;;;;;;;;;;;;;;;5031481;28;19986;-69
2023/10/05 12:37:49;;;;;;;;;;;;;;;;;;5031531;28;19986;-70
2023/10/05 12:40:18;;;;;;;;;;;;;;;;;;5031453;28;20005;-69
2023/10/05 12:42:49;;;;;;;;;;;;;;;;;;5031612;28;20021;-69
2023/10/05 12:45:16;;;;;;;;;;;;;;;;;;5031204;28;20076;-69
2023/10/05 12:47:42;;;;;;;;;;;;;;;;;;5031230;28;20113;-69
2023/10/05 12:50:08;;;;;;;;;;;;;;;;;;5031197;28;20402;-69
2023/10/05 12:52:34;;;;;;;;;;;;;;;;;;5031065;28;20430;-69
2023/10/05 12:55:00;;;;;;;;;;;;;;;;;;5031517;28;20029;-69
2023/10/05 12:57:27;;;;;;;;;;;;;;;;;;5031448;28;19987;-70
2023/10/05 12:59:53;;;;;;;;;;;;;;;;;;5031272;28;19993;-69
2023/10/05 13:02:19;;;;;;;;;;;;;;;;;;5031127;28;20413;-69
2023/10/05 13:04:45;;;;;;;;;;;;;;;;;;5031086;28;19986;-69
2023/10/05 13:07:16;;;;;;;;;;;;;;;;;;5031162;28;20012;-68
2023/10/05 13:09:42;;;;;;;;;;;;;;;;;;5031342;28;20065;-69
2023/10/05 13:12:12;;;;;;;;;;;;;;;;;;5031356;28;20216;-68
2023/10/05 13:14:39;;;;;;;;;;;;;;;;;;5031115;28;19997;-69
2023/10/05 13:17:11;;;;;;;;;;;;;;;;;;5034203;28;20073;-68
2023/10/05 13:19:37;;;;;;;;;;;;;;;;;;5034762;28;20008;-68
2023/10/05 13:22:06;;;;;;;;;;;;;;;;;;5034985;28;19990;-68
2023/10/05 13:24:32;;;;;;;;;;;;;;;;;;5034810;28;19989;-68
2023/10/05 13:26:59;;;;;;;;;;;;;;;;;;5035035;28;20120;-68
2023/10/05 13:29:26;;;;;;;;;;;;;;;;;;5034464;28;20393;-68
2023/10/05 13:31:53;;;;;;;;;;;;;;;;;;5034629;28;20009;-68
2023/10/05 13:34:27;;;;;;;;;;;;;;;;;;5034860;28;20005;-69
2023/10/05 13:36:54;;;;;;;;;;;;;;;;;;5034360;28;19994;-69
2023/10/05 13:39:26;;;;;;;;;;;;;;;;;;5034517;28;20085;-69
2023/10/05 13:42:05;;;;;;;;;;;;;;;;;;5034458;28;19986;-69
2023/10/05 13:44:31;;;;;;;;;;;;;;;;;;5034065;28;20052;-69
2023/10/05 13:47:02;;;;;;;;;;;;;;;;;;5033963;28;19990;-68
2023/10/05 13:49:30;;;;;;;;;;;;;;;;;;5034281;28;20498;-69
2023/10/05 13:51:57;;;;;;;;;;;;;;;;;;5033967;28;19993;-68
2023/10/05 13:54:23;;;;;;;;;;;;;;;;;;5034443;28;19991;-68
2023/10/05 13:56:49;;;;;;;;;;;;;;;;;;5033958;28;19993;-69
2023/10/05 13:59:21;;;;;;;;;;;;;;;;;;5033943;28;20069;-69
2023/10/05 14:01:47;;;;;;;;;;;;;;;;;;5032976;28;19990;-69
2023/10/05 14:04:20;;;;;;;;;;;;;;;;;;5033986;28;19994;-69
2023/10/05 14:06:46;;;;;;;;;;;;;;;;;;5033772;28;20052;-69
2023/10/05 14:09:12;;;;;;;;;;;;;;;;;;5034129;28;20014;-69
2023/10/05 14:11:38;;;;;;;;;;;;;;;;;;5033721;28;20465;-68
2023/10/05 14:14:04;;;;;;;;;;;;;;;;;;5032180;28;20005;-68
2023/10/05 14:16:37;;;;;;;;;;;;;;;;;;5033258;28;20013;-69
2023/10/05 14:19:03;;;;;;;;;;;;;;;;;;5032272;28;19986;-68
2023/10/05 14:21:29;;;;;;;;;;;;;;;;;;5033359;28;20084;-69
2023/10/05 14:23:58;;;;;;;;;;;;;;;;;;5033481;28;20048;-68
2023/10/05 14:26:26;;;;;;;;;;;;;;;;;;5033334;28;20032;-68
2023/10/05 14:28:53;;;;;;;;;;;;;;;;;;5032544;28;20017;-68
2023/10/05 14:31:19;;;;;;;;;;;;;;;;;;5033546;28;19986;-68
2023/10/05 14:33:45;;;;;;;;;;;;;;;;;;5033383;28;19986;-69
2023/10/05 14:36:11;;;;;;;;;;;;;;;;;;5033225;28;20103;-69
2023/10/05 14:38:38;;;;;;;;;;;;;;;;;;5033069;28;20463;-69
2023/10/05 14:41:03;;;;;;;;;;;;;;;;;;5033212;28;19997;-69
2023/10/05 14:43:34;;;;;;;;;;;;;;;;;;5033340;28;19990;-69
2023/10/05 14:46:00;;;;;;;;;;;;;;;;;;5031669;28;20028;-69
2023/10/05 14:48:29;;;;;;;;;;;;;;;;;;5033008;28;20378;-69
2023/10/05 14:50:55;;;;;;;;;;;;;;;;;;5032057;28;20459;-69
2023/10/05 14:53:21;;;;;;;;;;;;;;;;;;5032866;28;19986;-67
2023/10/05 14:55:47;;;;;;;;;;;;;;;;;;5032869;28;19997;-69
2023/10/05 14:58:13;;;;;;;;;;;;;;;;;;5032977;28;20389;-69
2023/10/05 15:00:43;;;;;;;;;;;;;;;;;;5032820;28;20316;-68
2023/10/05 15:03:08;;;;;;;;;;;;;;;;;;5032761;28;20083;-68
2023/10/05 15:05:37;;;;;;;;;;;;;;;;;;5032569;28;20052;-70
2023/10/05 15:08:03;;;;;;;;;;;;;;;;;;5032471;28;20008;-69
2023/10/05 15:10:30;;;;;;;;;;;;;;;;;;5032605;28;19994;-70
2023/10/05 15:12:56;;;;;;;;;;;;;;;;;;5032928;28;19986;-70
2023/10/05 15:15:22;;;;;;;;;;;;;;;;;;5032614;28;19993;-70
2023/10/05 15:17:54;;;;;;;;;;;;;;;;;;5032924;28;20025;-69
2023/10/05 15:20:23;;;;;;;;;;;;;;;;;;5032562;28;20017;-70
2023/10/05 15:22:49;;;;;;;;;;;;;;;;;;5032602;28;19982;-69
2023/10/05 15:25:15;;;;;;;;;;;;;;;;;;5032472;28;19990;-70
2023/10/05 15:27:44;;;;;;;;;;;;;;;;;;5031095;28;20224;-70
2023/10/05 15:30:10;;;;;;;;;;;;;;;;;;5032508;28;19986;-69
2023/10/05 15:32:36;;;;;;;;;;;;;;;;;;5032568;28;19992;-69
2023/10/05 15:35:03;;;;;;;;;;;;;;;;;;5032344;28;19982;-68
2023/10/05 15:37:29;;;;;;;;;;;;;;;;;;5032491;28;19986;-70
2023/10/05 15:39:55;;;;;;;;;;;;;;;;;;5031940;28;19986;-69
2023/10/05 15:42:21;;;;;;;;;;;;;;;;;;5032626;28;19991;-69
2023/10/05 15:44:47;;;;;;;;;;;;;;;;;;5032022;28;20018;-69
2023/10/05 15:47:13;;;;;;;;;;;;;;;;;;5030646;28;20088;-69
2023/10/05 15:49:39;;;;;;;;;;;;;;;;;;5031865;28;20010;-69
2023/10/05 15:52:05;;;;;;;;;;;;;;;;;;5031901;28;20453;-69
2023/10/05 15:54:31;;;;;;;;;;;;;;;;;;5030858;28;20010;-69
2023/10/05 15:57:00;;;;;;;;;;;;;;;;;;5031997;28;20009;-70
2023/10/05 15:59:26;;;;;;;;;;;;;;;;;;5030840;28;19986;-69
2023/10/05 16:01:52;;;;;;;;;;;;;;;;;;5031889;28;20009;-71
2023/10/05 16:04:18;;;;;;;;;;;;;;;;;;5031477;28;20244;-70
2023/10/05 16:06:44;;;;;;;;;;;;;;;;;;5030297;28;20006;-69
2023/10/05 16:09:10;;;;;;;;;;;;;;;;;;5030473;28;20064;-69
2023/10/05 16:11:36;;;;;;;;;;;;;;;;;;5031753;28;20077;-69
2023/10/05 16:14:08;;;;;;;;;;;;;;;;;;5030307;28;20339;-70
2023/10/05 16:16:33;;;;;;;;;;;;;;;;;;5031714;28;20036;-70
2023/10/05 16:19:00;;;;;;;;;;;;;;;;;;5031404;28;19986;-71
2023/10/05 16:21:26;;;;;;;;;;;;;;;;;;5031551;28;20040;-70
2023/10/05 16:23:53;;;;;;;;;;;;;;;;;;5038828;28;19990;-69
2023/10/05 16:26:19;;;;;;;;;;;;;;;;;;5051377;28;19989;-69
2023/10/05 16:28:45;;;;;;;;;;;;;;;;;;5036864;28;20010;-70
2023/10/05 16:31:13;;;;;;;;;;;;;;;;;;5034775;28;19982;-70
2023/10/05 16:33:40;;;;;;;;;;;;;;;;;;5031434;28;20099;-68
2023/10/05 16:36:08;;;;;;;;;;;;;;;;;;5049472;28;20033;-69
2023/10/05 16:38:34;;;;;;;;;;;;;;;;;;5051230;28;19992;-69
2023/10/05 16:41:00;;;;;;;;;;;;;;;;;;5051022;28;20080;-69
2023/10/05 16:43:27;;;;;;;;;;;;;;;;;;5041135;28;19993;-69
2023/10/05 16:45:56;;;;;;;;;;;;;;;;;;5031449;28;20498;-70
2023/10/05 16:48:22;;;;;;;;;;;;;;;;;;5031051;28;20553;-68
2023/10/05 16:50:48;;;;;;;;;;;;;;;;;;5032002;28;20021;-70
2023/10/05 16:53:14;;;;;;;;;;;;;;;;;;5051149;28;19992;-70
2023/10/05 16:55:41;;;;;;;;;;;;;;;;;;5050473;28;19986;-70
2023/10/05 16:58:07;;;;;;;;;;;;;;;;;;5036189;28;19994;-70
2023/10/05 17:00:33;;;;;;;;;;;;;;;;;;5054086;28;19989;-70
2023/10/05 17:03:00;;;;;;;;;;;;;;;;;;5055191;28;20074;-69
2023/10/05 17:05:27;;;;;;;;;;;;;;;;;;5054909;28;20002;-70
2023/10/05 17:07:56;;;;;;;;;;;;;;;;;;5053399;28;20006;-68